sensor_id;sensor_type;location;lat;lon;timestamp;pressure;altitude;pressure_sealevel;temperature;humidity
9717;BME280;4897;43.570;27.832;2022-09-09T00:01:04;99265.25;;;18.33;100.00
9717;BME280;4897;43.570;27.832;2022-09-09T00:03:41;99242.50;;;18.11;100.00
9717;BME280;4897;43.570;27.832;2022-09-09T00:06:17;99259.34;;;18.21;100.00
9717;BME280;4897;43.570;27.832;2022-09-09T00:08:55;99266.47;;;18.22;100.00
9717;BME280;4897;43.570;27.832;2022-09-09T00:11:29;99267.66;;;18.20;100.00
9717;BME280;4897;43.570;27.832;2022-09-09T00:14:00;99260.75;;;18.09;100.00
9717;BME280;4897;43.570;27.832;2022-09-09T00:16:31;99274.47;;;18.08;100.00
9717;BME280;4897;43.570;27.832;2022-09-09T00:19:06;99265.34;;;18.01;100.00
9717;BME280;4897;43.570;27.832;2022-09-09T00:21:35;99238.81;;;17.96;100.00
9717;BME280;4897;43.570;27.832;2022-09-09T00:24:11;99254.34;;;18.02;100.00
9717;BME280;4897;43.570;27.832;2022-09-09T00:26:48;99252.91;;;17.92;100.00
9717;BME280;4897;43.570;27.832;2022-09-09T00:29:25;99253.56;;;17.94;100.00
9717;BME280;4897;43.570;27.832;2022-09-09T00:32:04;99254.25;;;17.80;100.00
9717;BME280;4897;43.570;27.832;2022-09-09T00:34:32;99264.06;;;17.89;100.00
9717;BME280;4897;43.570;27.832;2022-09-09T00:36:59;99253.25;;;17.81;100.00
9717;BME280;4897;43.570;27.832;2022-09-09T00:39:32;99254.25;;;17.80;100.00
9717;BME280;4897;43.570;27.832;2022-09-09T00:42:13;99253.44;;;17.79;100.00
9717;BME280;4897;43.570;27.832;2022-09-09T00:44:51;99252.09;;;17.75;100.00
9717;BME280;4897;43.570;27.832;2022-09-09T00:47:35;99251.56;;;17.80;100.00
9717;BME280;4897;43.570;27.832;2022-09-09T00:50:17;99250.72;;;17.71;100.00
9717;BME280;4897;43.570;27.832;2022-09-09T00:52:59;99235.59;;;17.54;100.00
9717;BME280;4897;43.570;27.832;2022-09-09T00:55:40;99237.56;;;17.44;100.00
9717;BME280;4897;43.570;27.832;2022-09-09T00:58:09;99258.22;;;17.53;100.00
9717;BME280;4897;43.570;27.832;2022-09-09T01:00:41;99244.00;;;17.43;100.00
9717;BME280;4897;43.570;27.832;2022-09-09T01:03:19;99257.16;;;17.46;100.00
9717;BME280;4897;43.570;27.832;2022-09-09T01:05:55;99253.47;;;17.47;100.00
9717;BME280;4897;43.570;27.832;2022-09-09T01:08:43;99214.31;;;17.11;100.00
9717;BME280;4897;43.570;27.832;2022-09-09T01:11:21;99252.16;;;17.19;100.00
9717;BME280;4897;43.570;27.832;2022-09-09T01:13:53;99258.72;;;17.24;100.00
9717;BME280;4897;43.570;27.832;2022-09-09T01:16:25;99270.22;;;17.18;100.00
9717;BME280;4897;43.570;27.832;2022-09-09T01:18:54;99265.13;;;17.15;100.00
9717;BME280;4897;43.570;27.832;2022-09-09T01:21:30;99267.00;;;17.15;100.00
9717;BME280;4897;43.570;27.832;2022-09-09T01:24:15;99242.34;;;17.02;100.00
9717;BME280;4897;43.570;27.832;2022-09-09T01:26:46;99253.84;;;16.96;100.00
9717;BME280;4897;43.570;27.832;2022-09-09T01:29:15;99266.81;;;16.92;100.00
9717;BME280;4897;43.570;27.832;2022-09-09T01:31:52;99258.22;;;16.89;100.00
9717;BME280;4897;43.570;27.832;2022-09-09T01:34:20;99251.78;;;16.82;100.00
9717;BME280;4897;43.570;27.832;2022-09-09T01:36:53;99244.88;;;16.87;100.00
9717;BME280;4897;43.570;27.832;2022-09-09T01:39:22;99243.34;;;16.85;100.00
9717;BME280;4897;43.570;27.832;2022-09-09T01:41:50;99237.97;;;16.85;100.00
9717;BME280;4897;43.570;27.832;2022-09-09T01:44:19;99240.97;;;16.73;100.00
9717;BME280;4897;43.570;27.832;2022-09-09T01:46:46;99239.63;;;16.86;100.00
9717;BME280;4897;43.570;27.832;2022-09-09T01:49:16;99253.81;;;16.79;100.00
9717;BME280;4897;43.570;27.832;2022-09-09T01:51:46;99240.16;;;16.81;100.00
9717;BME280;4897;43.570;27.832;2022-09-09T01:54:15;99239.97;;;16.91;100.00
9717;BME280;4897;43.570;27.832;2022-09-09T01:56:48;99249.44;;;16.87;100.00
9717;BME280;4897;43.570;27.832;2022-09-09T01:59:27;99249.13;;;16.90;100.00
9717;BME280;4897;43.570;27.832;2022-09-09T02:02:11;99236.44;;;16.82;100.00
9717;BME280;4897;43.570;27.832;2022-09-09T02:04:40;99255.84;;;16.86;100.00
9717;BME280;4897;43.570;27.832;2022-09-09T02:07:17;99240.84;;;16.75;100.00
9717;BME280;4897;43.570;27.832;2022-09-09T02:09:51;99256.84;;;16.68;100.00
9717;BME280;4897;43.570;27.832;2022-09-09T02:12:24;99252.44;;;16.59;100.00
9717;BME280;4897;43.570;27.832;2022-09-09T02:14:56;99249.44;;;16.70;100.00
9717;BME280;4897;43.570;27.832;2022-09-09T02:17:29;99204.84;;;16.58;100.00
9717;BME280;4897;43.570;27.832;2022-09-09T02:20:02;99255.50;;;16.97;100.00
9717;BME280;4897;43.570;27.832;2022-09-09T02:22:33;99251.28;;;16.94;100.00
9717;BME280;4897;43.570;27.832;2022-09-09T02:25:05;99259.06;;;16.89;100.00
9717;BME280;4897;43.570;27.832;2022-09-09T02:27:34;99253.00;;;16.87;100.00
9717;BME280;4897;43.570;27.832;2022-09-09T02:30:04;99246.41;;;16.98;100.00
9717;BME280;4897;43.570;27.832;2022-09-09T02:32:34;99242.00;;;17.05;100.00
9717;BME280;4897;43.570;27.832;2022-09-09T02:35:04;99238.81;;;17.01;100.00
9717;BME280;4897;43.570;27.832;2022-09-09T02:37:37;99255.50;;;16.97;100.00
9717;BME280;4897;43.570;27.832;2022-09-09T02:40:05;99247.75;;;17.02;100.00
9717;BME280;4897;43.570;27.832;2022-09-09T02:42:38;99239.97;;;17.07;100.00
9717;BME280;4897;43.570;27.832;2022-09-09T02:45:08;99243.88;;;17.04;100.00
9717;BME280;4897;43.570;27.832;2022-09-09T02:47:38;99227.81;;;16.95;100.00
9717;BME280;4897;43.570;27.832;2022-09-09T02:50:12;99245.06;;;17.10;100.00
9717;BME280;4897;43.570;27.832;2022-09-09T02:52:48;99239.47;;;17.11;100.00
9717;BME280;4897;43.570;27.832;2022-09-09T02:55:23;99241.31;;;17.11;100.00
9717;BME280;4897;43.570;27.832;2022-09-09T02:57:52;99249.47;;;17.19;100.00
9717;BME280;4897;43.570;27.832;2022-09-09T03:00:26;99250.13;;;17.21;100.00
9717;BME280;4897;43.570;27.832;2022-09-09T03:02:54;99236.78;;;17.11;100.00
9717;BME280;4897;43.570;27.832;2022-09-09T03:05:21;99251.13;;;17.20;100.00
9717;BME280;4897;43.570;27.832;2022-09-09T03:07:49;99229.69;;;17.10;100.00
9717;BME280;4897;43.570;27.832;2022-09-09T03:10:16;99251.44;;;17.17;100.00
9717;BME280;4897;43.570;27.832;2022-09-09T03:12:43;99258.56;;;17.26;100.00
9717;BME280;4897;43.570;27.832;2022-09-09T03:15:10;99213.81;;;16.91;100.00
9717;BME280;4897;43.570;27.832;2022-09-09T03:17:38;99261.44;;;17.32;100.00
9717;BME280;4897;43.570;27.832;2022-09-09T03:20:06;99235.09;;;17.26;100.00
9717;BME280;4897;43.570;27.832;2022-09-09T03:22:33;99238.81;;;17.33;100.00
9717;BME280;4897;43.570;27.832;2022-09-09T03:25:01;99239.81;;;17.32;100.00
9717;BME280;4897;43.570;27.832;2022-09-09T03:27:28;99251.09;;;17.36;100.00
9717;BME280;4897;43.570;27.832;2022-09-09T03:29:55;99238.63;;;17.35;100.00
9717;BME280;4897;43.570;27.832;2022-09-09T03:32:23;99236.91;;;17.34;100.00
9717;BME280;4897;43.570;27.832;2022-09-09T03:34:52;99246.03;;;17.41;100.00
9717;BME280;4897;43.570;27.832;2022-09-09T03:37:21;99242.00;;;17.37;100.00
9717;BME280;4897;43.570;27.832;2022-09-09T03:39:48;99244.69;;;17.45;100.00
9717;BME280;4897;43.570;27.832;2022-09-09T03:42:15;99244.34;;;17.40;100.00
9717;BME280;4897;43.570;27.832;2022-09-09T03:44:44;99241.31;;;17.35;100.00
9717;BME280;4897;43.570;27.832;2022-09-09T03:47:16;99243.66;;;17.38;100.00
9717;BME280;4897;43.570;27.832;2022-09-09T03:49:44;99254.47;;;17.38;100.00
9717;BME280;4897;43.570;27.832;2022-09-09T03:52:12;99245.88;;;17.42;100.00
9717;BME280;4897;43.570;27.832;2022-09-09T03:54:41;99251.75;;;17.46;100.00
9717;BME280;4897;43.570;27.832;2022-09-09T03:57:09;99238.78;;;17.41;100.00
9717;BME280;4897;43.570;27.832;2022-09-09T03:59:36;99253.81;;;17.60;100.00
9717;BME280;4897;43.570;27.832;2022-09-09T04:02:04;99248.75;;;17.57;100.00
9717;BME280;4897;43.570;27.832;2022-09-09T04:04:31;99253.16;;;17.58;100.00
9717;BME280;4897;43.570;27.832;2022-09-09T04:06:57;99258.06;;;17.63;100.00
9717;BME280;4897;43.570;27.832;2022-09-09T04:09:26;99260.22;;;17.67;100.00
9717;BME280;4897;43.570;27.832;2022-09-09T04:11:52;99256.13;;;17.71;100.00
9717;BME280;4897;43.570;27.832;2022-09-09T04:14:20;99253.78;;;17.76;100.00
9717;BME280;4897;43.570;27.832;2022-09-09T04:16:47;99256.81;;;17.81;100.00
9717;BME280;4897;43.570;27.832;2022-09-09T04:19:14;99255.97;;;17.81;100.00
9717;BME280;4897;43.570;27.832;2022-09-09T04:21:41;99252.56;;;17.87;100.00
9717;BME280;4897;43.570;27.832;2022-09-09T04:24:08;99246.97;;;17.88;100.00
9717;BME280;4897;43.570;27.832;2022-09-09T04:26:37;99246.22;;;18.02;100.00
9717;BME280;4897;43.570;27.832;2022-09-09T04:29:04;99249.94;;;18.09;100.00
9717;BME280;4897;43.570;27.832;2022-09-09T04:31:32;99255.16;;;18.19;100.00
9717;BME280;4897;43.570;27.832;2022-09-09T04:33:59;99238.06;;;18.18;100.00
9717;BME280;4897;43.570;27.832;2022-09-09T04:36:30;99225.00;;;18.22;100.00
9717;BME280;4897;43.570;27.832;2022-09-09T04:38:58;99220.06;;;18.33;100.00
9717;BME280;4897;43.570;27.832;2022-09-09T04:41:25;99241.94;;;18.63;100.00
9717;BME280;4897;43.570;27.832;2022-09-09T04:43:53;99239.16;;;18.71;100.00
9717;BME280;4897;43.570;27.832;2022-09-09T04:46:20;99224.56;;;18.72;100.00
9717;BME280;4897;43.570;27.832;2022-09-09T04:48:48;99239.16;;;18.93;100.00
9717;BME280;4897;43.570;27.832;2022-09-09T04:51:15;99234.31;;;19.03;100.00
9717;BME280;4897;43.570;27.832;2022-09-09T04:53:42;99234.44;;;19.10;100.00
9717;BME280;4897;43.570;27.832;2022-09-09T04:56:10;99244.69;;;19.23;100.00
9717;BME280;4897;43.570;27.832;2022-09-09T04:58:39;99233.56;;;19.32;100.00
9717;BME280;4897;43.570;27.832;2022-09-09T05:01:11;99234.91;;;19.36;100.00
9717;BME280;4897;43.570;27.832;2022-09-09T05:03:38;99248.34;;;19.52;100.00
9717;BME280;4897;43.570;27.832;2022-09-09T05:06:07;99230.81;;;19.55;100.00
9717;BME280;4897;43.570;27.832;2022-09-09T05:08:36;99179.84;;;19.36;100.00
9717;BME280;4897;43.570;27.832;2022-09-09T05:11:03;99247.78;;;19.86;100.00
9717;BME280;4897;43.570;27.832;2022-09-09T05:13:30;99240.88;;;19.98;100.00
9717;BME280;4897;43.570;27.832;2022-09-09T05:15:58;99239.28;;;20.04;100.00
9717;BME280;4897;43.570;27.832;2022-09-09T05:18:26;99248.25;;;20.19;100.00
9717;BME280;4897;43.570;27.832;2022-09-09T05:20:58;99240.03;;;20.27;100.00
9717;BME280;4897;43.570;27.832;2022-09-09T05:23:26;99243.09;;;20.38;100.00
9717;BME280;4897;43.570;27.832;2022-09-09T05:25:56;99244.97;;;20.52;100.00
9717;BME280;4897;43.570;27.832;2022-09-09T05:28:24;99236.84;;;20.59;100.00
9717;BME280;4897;43.570;27.832;2022-09-09T05:30:56;99235.06;;;20.66;100.00
9717;BME280;4897;43.570;27.832;2022-09-09T05:33:25;99218.84;;;20.73;100.00
9717;BME280;4897;43.570;27.832;2022-09-09T05:35:57;99210.31;;;20.76;100.00
9717;BME280;4897;43.570;27.832;2022-09-09T05:38:24;99211.00;;;20.84;100.00
9717;BME280;4897;43.570;27.832;2022-09-09T05:40:51;99225.69;;;21.04;100.00
9717;BME280;4897;43.570;27.832;2022-09-09T05:43:18;99215.75;;;21.18;100.00
9717;BME280;4897;43.570;27.832;2022-09-09T05:45:46;99208.94;;;21.28;100.00
9717;BME280;4897;43.570;27.832;2022-09-09T05:48:13;99190.53;;;21.30;100.00
9717;BME280;4897;43.570;27.832;2022-09-09T05:50:42;99207.00;;;21.50;100.00
9717;BME280;4897;43.570;27.832;2022-09-09T05:53:10;99203.53;;;21.63;100.00
9717;BME280;4897;43.570;27.832;2022-09-09T05:55:37;99188.66;;;21.59;100.00
9717;BME280;4897;43.570;27.832;2022-09-09T05:58:04;99203.00;;;21.80;100.00
9717;BME280;4897;43.570;27.832;2022-09-09T06:00:31;99202.44;;;21.85;100.00
9717;BME280;4897;43.570;27.832;2022-09-09T06:02:58;99205.25;;;21.98;100.00
9717;BME280;4897;43.570;27.832;2022-09-09T06:05:25;99201.94;;;22.02;100.00
9717;BME280;4897;43.570;27.832;2022-09-09T06:07:55;99215.59;;;22.09;100.00
9717;BME280;4897;43.570;27.832;2022-09-09T06:10:22;99216.22;;;22.11;100.00
9717;BME280;4897;43.570;27.832;2022-09-09T06:12:52;99212.22;;;22.13;100.00
9717;BME280;4897;43.570;27.832;2022-09-09T06:15:19;99220.25;;;22.21;100.00
9717;BME280;4897;43.570;27.832;2022-09-09T06:17:46;99215.88;;;22.27;100.00
9717;BME280;4897;43.570;27.832;2022-09-09T06:20:14;99231.81;;;22.37;100.00
9717;BME280;4897;43.570;27.832;2022-09-09T06:22:41;99234.56;;;22.43;100.00
9717;BME280;4897;43.570;27.832;2022-09-09T06:25:13;99242.41;;;22.59;100.00
9717;BME280;4897;43.570;27.832;2022-09-09T06:27:40;99240.38;;;22.74;100.00
9717;BME280;4897;43.570;27.832;2022-09-09T06:30:08;99224.47;;;22.78;100.00
9717;BME280;4897;43.570;27.832;2022-09-09T06:32:36;99240.00;;;22.90;100.00
9717;BME280;4897;43.570;27.832;2022-09-09T06:35:04;99247.97;;;22.92;100.00
9717;BME280;4897;43.570;27.832;2022-09-09T06:37:31;99249.25;;;23.02;100.00
9717;BME280;4897;43.570;27.832;2022-09-09T06:39:57;99245.06;;;23.07;100.00
9717;BME280;4897;43.570;27.832;2022-09-09T06:42:26;99237.94;;;23.19;100.00
9717;BME280;4897;43.570;27.832;2022-09-09T06:44:56;99244.25;;;23.26;100.00
9717;BME280;4897;43.570;27.832;2022-09-09T06:47:23;99240.91;;;23.37;100.00
9717;BME280;4897;43.570;27.832;2022-09-09T06:49:50;99226.22;;;23.51;100.00
9717;BME280;4897;43.570;27.832;2022-09-09T06:52:18;99233.34;;;23.58;100.00
9717;BME280;4897;43.570;27.832;2022-09-09T06:54:51;99232.09;;;23.61;100.00
9717;BME280;4897;43.570;27.832;2022-09-09T06:57:21;99206.06;;;23.52;100.00
9717;BME280;4897;43.570;27.832;2022-09-09T06:59:49;99218.22;;;23.62;100.00
9717;BME280;4897;43.570;27.832;2022-09-09T07:02:16;99225.78;;;23.80;100.00
9717;BME280;4897;43.570;27.832;2022-09-09T07:04:43;99220.94;;;23.82;100.00
9717;BME280;4897;43.570;27.832;2022-09-09T07:07:10;99224.47;;;23.89;100.00
9717;BME280;4897;43.570;27.832;2022-09-09T07:09:39;99222.59;;;23.90;100.00
9717;BME280;4897;43.570;27.832;2022-09-09T07:12:06;99226.56;;;24.00;100.00
9717;BME280;4897;43.570;27.832;2022-09-09T07:14:33;99194.19;;;23.97;100.00
9717;BME280;4897;43.570;27.832;2022-09-09T07:17:04;99223.13;;;24.31;100.00
9717;BME280;4897;43.570;27.832;2022-09-09T07:19:31;99221.84;;;24.33;100.00
9717;BME280;4897;43.570;27.832;2022-09-09T07:21:59;99231.25;;;24.50;100.00
9717;BME280;4897;43.570;27.832;2022-09-09T07:24:27;99235.25;;;24.48;98.71
9717;BME280;4897;43.570;27.832;2022-09-09T07:26:55;99233.16;;;24.43;100.00
9717;BME280;4897;43.570;27.832;2022-09-09T07:29:22;99235.91;;;24.43;99.93
9717;BME280;4897;43.570;27.832;2022-09-09T07:31:49;99231.28;;;24.44;100.00
9717;BME280;4897;43.570;27.832;2022-09-09T07:34:17;99233.47;;;24.67;93.72
9717;BME280;4897;43.570;27.832;2022-09-09T07:36:45;99227.63;;;24.63;96.90
9717;BME280;4897;43.570;27.832;2022-09-09T07:39:13;99238.00;;;24.92;90.60
9717;BME280;4897;43.570;27.832;2022-09-09T07:41:41;99243.41;;;25.05;84.72
9717;BME280;4897;43.570;27.832;2022-09-09T07:44:11;99235.72;;;25.14;77.99
9717;BME280;4897;43.570;27.832;2022-09-09T07:46:38;99236.75;;;25.19;74.86
9717;BME280;4897;43.570;27.832;2022-09-09T07:49:06;99235.03;;;25.25;79.71
9717;BME280;4897;43.570;27.832;2022-09-09T07:51:37;99232.00;;;25.33;70.16
9717;BME280;4897;43.570;27.832;2022-09-09T07:54:05;99189.94;;;25.03;69.82
9717;BME280;4897;43.570;27.832;2022-09-09T07:56:33;99238.47;;;25.45;74.26
9717;BME280;4897;43.570;27.832;2022-09-09T07:59:01;99235.00;;;25.56;77.85
9717;BME280;4897;43.570;27.832;2022-09-09T08:01:31;99233.66;;;25.65;79.44
9717;BME280;4897;43.570;27.832;2022-09-09T08:04:00;99229.56;;;25.74;76.29
9717;BME280;4897;43.570;27.832;2022-09-09T08:06:28;99235.41;;;26.02;73.11
9717;BME280;4897;43.570;27.832;2022-09-09T08:08:56;99220.81;;;26.27;67.07
9717;BME280;4897;43.570;27.832;2022-09-09T08:11:26;99221.44;;;27.06;60.62
9717;BME280;4897;43.570;27.832;2022-09-09T08:13:53;99210.41;;;28.80;53.22
9717;BME280;4897;43.570;27.832;2022-09-09T08:16:23;99209.13;;;29.44;49.63
9717;BME280;4897;43.570;27.832;2022-09-09T08:18:51;99206.09;;;30.33;48.31
9717;BME280;4897;43.570;27.832;2022-09-09T08:21:20;99212.84;;;30.64;46.62
9717;BME280;4897;43.570;27.832;2022-09-09T08:23:47;99209.94;;;30.97;46.77
9717;BME280;4897;43.570;27.832;2022-09-09T08:26:17;99211.13;;;31.38;45.55
9717;BME280;4897;43.570;27.832;2022-09-09T08:28:48;99207.34;;;31.44;44.89
9717;BME280;4897;43.570;27.832;2022-09-09T08:31:22;99198.38;;;31.95;43.30
9717;BME280;4897;43.570;27.832;2022-09-09T08:33:52;99196.66;;;31.26;43.54
9717;BME280;4897;43.570;27.832;2022-09-09T08:36:21;99190.22;;;31.79;44.02
9717;BME280;4897;43.570;27.832;2022-09-09T08:38:49;99183.00;;;32.14;43.77
9717;BME280;4897;43.570;27.832;2022-09-09T08:41:51;99188.75;;;32.60;42.91
9717;BME280;4897;43.570;27.832;2022-09-09T08:44:31;99178.38;;;33.42;39.20
9717;BME280;4897;43.570;27.832;2022-09-09T08:47:09;99135.19;;;32.34;40.15
9717;BME280;4897;43.570;27.832;2022-09-09T08:49:53;99170.34;;;31.87;42.73
9717;BME280;4897;43.570;27.832;2022-09-09T08:52:28;99186.59;;;32.77;42.08
9717;BME280;4897;43.570;27.832;2022-09-09T08:54:59;99182.81;;;33.48;40.62
9717;BME280;4897;43.570;27.832;2022-09-09T08:57:31;99181.78;;;32.47;40.70
9717;BME280;4897;43.570;27.832;2022-09-09T08:59:59;99164.88;;;32.49;41.31
9717;BME280;4897;43.570;27.832;2022-09-09T09:02:31;99172.19;;;34.16;38.44
9717;BME280;4897;43.570;27.832;2022-09-09T09:05:11;99170.81;;;34.18;37.29
9717;BME280;4897;43.570;27.832;2022-09-09T09:07:55;99173.91;;;33.01;35.14
9717;BME280;4897;43.570;27.832;2022-09-09T09:10:39;99174.78;;;33.07;38.21
9717;BME280;4897;43.570;27.832;2022-09-09T09:13:15;99176.16;;;33.74;37.89
9717;BME280;4897;43.570;27.832;2022-09-09T09:15:48;99181.13;;;33.82;36.58
9717;BME280;4897;43.570;27.832;2022-09-09T09:18:17;99154.00;;;33.59;34.42
9717;BME280;4897;43.570;27.832;2022-09-09T09:20:50;99183.91;;;33.22;34.65
9717;BME280;4897;43.570;27.832;2022-09-09T09:23:22;99191.41;;;33.17;34.67
9717;BME280;4897;43.570;27.832;2022-09-09T09:25:52;99207.72;;;33.13;31.68
9717;BME280;4897;43.570;27.832;2022-09-09T09:28:27;99211.63;;;33.22;30.11
9717;BME280;4897;43.570;27.832;2022-09-09T09:30:58;99213.31;;;32.46;32.67
9717;BME280;4897;43.570;27.832;2022-09-09T09:33:33;99195.28;;;33.86;30.79
9717;BME280;4897;43.570;27.832;2022-09-09T09:36:02;99205.97;;;34.53;29.75
9717;BME280;4897;43.570;27.832;2022-09-09T09:38:34;99211.66;;;33.88;28.74
9717;BME280;4897;43.570;27.832;2022-09-09T09:41:02;99200.00;;;33.75;29.00
9717;BME280;4897;43.570;27.832;2022-09-09T09:43:31;99191.13;;;33.94;29.00
9717;BME280;4897;43.570;27.832;2022-09-09T09:45:59;99180.63;;;33.55;29.56
9717;BME280;4897;43.570;27.832;2022-09-09T09:51:34;99164.50;;;33.47;28.64
9717;BME280;4897;43.570;27.832;2022-09-09T09:54:13;99178.78;;;34.50;28.03
9717;BME280;4897;43.570;27.832;2022-09-09T09:56:42;99168.94;;;33.73;28.95
9717;BME280;4897;43.570;27.832;2022-09-09T09:59:22;99151.38;;;34.23;28.39
9717;BME280;4897;43.570;27.832;2022-09-09T10:01:49;99168.13;;;33.18;30.13
9717;BME280;4897;43.570;27.832;2022-09-09T10:04:18;99158.41;;;33.45;29.06
9717;BME280;4897;43.570;27.832;2022-09-09T10:06:46;99165.06;;;33.04;28.81
9717;BME280;4897;43.570;27.832;2022-09-09T10:09:23;99166.34;;;32.09;30.18
9717;BME280;4897;43.570;27.832;2022-09-09T10:11:57;99148.66;;;32.87;29.20
9717;BME280;4897;43.570;27.832;2022-09-09T10:14:36;99169.41;;;34.21;28.52
9717;BME280;4897;43.570;27.832;2022-09-09T10:17:16;99168.50;;;34.40;28.49
9717;BME280;4897;43.570;27.832;2022-09-09T10:19:57;99176.41;;;33.88;29.37
9717;BME280;4897;43.570;27.832;2022-09-09T10:22:27;99184.38;;;32.79;31.40
9717;BME280;4897;43.570;27.832;2022-09-09T10:25:17;99176.03;;;32.07;31.86
9717;BME280;4897;43.570;27.832;2022-09-09T10:27:54;99176.16;;;33.34;31.14
9717;BME280;4897;43.570;27.832;2022-09-09T10:30:34;99157.84;;;33.28;28.88
9717;BME280;4897;43.570;27.832;2022-09-09T10:33:09;99164.22;;;33.79;28.20
9717;BME280;4897;43.570;27.832;2022-09-09T10:35:45;99160.38;;;33.55;28.18
9717;BME280;4897;43.570;27.832;2022-09-09T10:38:19;99158.44;;;33.60;29.03
9717;BME280;4897;43.570;27.832;2022-09-09T10:41:05;99158.41;;;33.70;28.33
9717;BME280;4897;43.570;27.832;2022-09-09T10:44:06;99168.88;;;32.83;28.51
9717;BME280;4897;43.570;27.832;2022-09-09T10:46:51;99165.34;;;33.18;28.99
9717;BME280;4897;43.570;27.832;2022-09-09T10:49:31;99139.50;;;32.92;28.89
9717;BME280;4897;43.570;27.832;2022-09-09T10:52:05;99163.41;;;32.36;29.90
9717;BME280;4897;43.570;27.832;2022-09-09T10:54:46;99157.00;;;32.20;28.29
9717;BME280;4897;43.570;27.832;2022-09-09T10:57:25;99135.16;;;32.24;28.83
9717;BME280;4897;43.570;27.832;2022-09-09T10:59:59;99172.81;;;32.25;29.89
9717;BME280;4897;43.570;27.832;2022-09-09T11:02:31;99154.75;;;32.84;30.25
9717;BME280;4897;43.570;27.832;2022-09-09T11:05:03;99157.31;;;33.16;29.71
9717;BME280;4897;43.570;27.832;2022-09-09T11:07:35;99158.78;;;32.47;30.09
9717;BME280;4897;43.570;27.832;2022-09-09T11:10:17;99166.88;;;32.01;31.42
9717;BME280;4897;43.570;27.832;2022-09-09T11:12:51;99172.72;;;31.68;30.00
9717;BME280;4897;43.570;27.832;2022-09-09T11:15:23;99162.78;;;31.04;30.50
9717;BME280;4897;43.570;27.832;2022-09-09T11:17:58;99178.91;;;31.43;30.60
9717;BME280;4897;43.570;27.832;2022-09-09T11:20:27;99172.19;;;31.08;30.73
9717;BME280;4897;43.570;27.832;2022-09-09T11:22:58;99171.16;;;30.87;31.01
9717;BME280;4897;43.570;27.832;2022-09-09T11:25:33;99161.16;;;31.76;31.73
9717;BME280;4897;43.570;27.832;2022-09-09T11:28:30;99152.78;;;32.80;30.99
9717;BME280;4897;43.570;27.832;2022-09-09T11:31:13;99140.19;;;31.85;32.41
9717;BME280;4897;43.570;27.832;2022-09-09T11:34:10;99097.47;;;31.29;32.76
9717;BME280;4897;43.570;27.832;2022-09-09T11:36:53;99149.09;;;31.50;32.38
9717;BME280;4897;43.570;27.832;2022-09-09T11:42:31;99137.44;;;31.90;32.53
9717;BME280;4897;43.570;27.832;2022-09-09T11:45:09;99133.84;;;32.42;32.14
9717;BME280;4897;43.570;27.832;2022-09-09T11:47:39;99130.56;;;32.55;30.48
9717;BME280;4897;43.570;27.832;2022-09-09T11:50:28;99134.28;;;32.08;32.65
9717;BME280;4897;43.570;27.832;2022-09-09T11:53:05;99135.50;;;32.43;33.23
9717;BME280;4897;43.570;27.832;2022-09-09T11:55:33;99127.31;;;32.93;32.06
9717;BME280;4897;43.570;27.832;2022-09-09T11:58:03;99115.66;;;32.76;30.99
9717;BME280;4897;43.570;27.832;2022-09-09T12:00:36;99118.34;;;32.46;32.19
9717;BME280;4897;43.570;27.832;2022-09-09T12:03:34;99127.31;;;32.83;32.90
9717;BME280;4897;43.570;27.832;2022-09-09T12:06:12;99133.09;;;31.58;34.16
9717;BME280;4897;43.570;27.832;2022-09-09T12:08:43;99133.81;;;31.85;34.81
9717;BME280;4897;43.570;27.832;2022-09-09T12:11:11;99114.88;;;32.03;33.75
9717;BME280;4897;43.570;27.832;2022-09-09T12:13:37;99125.94;;;32.80;31.95
9717;BME280;4897;43.570;27.832;2022-09-09T12:16:05;99127.94;;;33.20;32.62
9717;BME280;4897;43.570;27.832;2022-09-09T12:18:34;99119.88;;;33.03;32.73
9717;BME280;4897;43.570;27.832;2022-09-09T12:21:07;99117.59;;;32.70;33.62
9717;BME280;4897;43.570;27.832;2022-09-09T12:23:46;99132.81;;;32.68;33.49
9717;BME280;4897;43.570;27.832;2022-09-09T12:26:29;99118.81;;;32.22;35.57
9717;BME280;4897;43.570;27.832;2022-09-09T12:29:15;99097.19;;;32.09;35.13
9717;BME280;4897;43.570;27.832;2022-09-09T12:31:48;99121.50;;;31.61;36.75
9717;BME280;4897;43.570;27.832;2022-09-09T12:34:24;99109.63;;;31.60;36.68
9717;BME280;4897;43.570;27.832;2022-09-09T12:37:02;99094.22;;;31.74;37.03
9717;BME280;4897;43.570;27.832;2022-09-09T12:39:34;99101.84;;;31.52;37.07
9717;BME280;4897;43.570;27.832;2022-09-09T12:42:04;99089.03;;;31.88;36.49
9717;BME280;4897;43.570;27.832;2022-09-09T12:44:30;99101.38;;;31.70;34.63
9717;BME280;4897;43.570;27.832;2022-09-09T12:47:01;99096.88;;;31.59;35.36
9717;BME280;4897;43.570;27.832;2022-09-09T12:49:31;99095.00;;;31.28;37.34
9717;BME280;4897;43.570;27.832;2022-09-09T12:52:03;99090.66;;;31.37;38.00
9717;BME280;4897;43.570;27.832;2022-09-09T12:54:35;99091.41;;;31.64;38.19
9717;BME280;4897;43.570;27.832;2022-09-09T12:57:09;99092.78;;;31.30;37.14
9717;BME280;4897;43.570;27.832;2022-09-09T12:59:39;99092.50;;;31.26;36.32
9717;BME280;4897;43.570;27.832;2022-09-09T13:02:18;99086.75;;;31.33;37.21
9717;BME280;4897;43.570;27.832;2022-09-09T13:04:45;99063.66;;;30.81;38.25
9717;BME280;4897;43.570;27.832;2022-09-09T13:07:13;99072.31;;;30.89;39.31
9717;BME280;4897;43.570;27.832;2022-09-09T13:09:43;99087.38;;;30.76;42.57
9717;BME280;4897;43.570;27.832;2022-09-09T13:12:14;99080.00;;;31.19;41.98
9717;BME280;4897;43.570;27.832;2022-09-09T13:14:44;99086.41;;;31.61;41.41
9717;BME280;4897;43.570;27.832;2022-09-09T13:17:19;99078.09;;;31.61;38.56
9717;BME280;4897;43.570;27.832;2022-09-09T13:19:47;99071.75;;;31.24;38.90
9717;BME280;4897;43.570;27.832;2022-09-09T13:22:21;99083.59;;;30.88;38.39
9717;BME280;4897;43.570;27.832;2022-09-09T13:25:00;99094.38;;;30.62;39.32
9717;BME280;4897;43.570;27.832;2022-09-09T13:27:30;99076.81;;;31.00;40.98
9717;BME280;4897;43.570;27.832;2022-09-09T13:29:58;99062.44;;;30.98;43.01
9717;BME280;4897;43.570;27.832;2022-09-09T13:32:25;99012.72;;;30.98;43.09
9717;BME280;4897;43.570;27.832;2022-09-09T13:34:55;99075.38;;;31.66;42.86